Time;durP1;ratioP1;P1;durP2;ratioP2;P2;SDS_P1;SDS_P2;PMS_P1;PMS_P2;Temp;Humidity;BMP_temperature;BMP_pressure;BME280_temperature;BME280_humidity;BME280_pressure;Samples;Min_cycle;Max_cycle;Signal;HPM_P1;HPM_P2
2021/05/01 00:00:32;;;;;;;31.80;17.90;;;6.50;99.90;;;;;;5038187;28;20036;-79
2021/05/01 00:03:00;;;;;;;33.60;18.70;;;6.40;99.90;;;;;;5039986;28;20025;-79
2021/05/01 00:05:28;;;;;;;31.95;16.17;;;6.40;99.90;;;;;;5060618;28;20040;-78
2021/05/01 00:07:55;;;;;;;33.97;17.70;;;6.30;99.90;;;;;;5042830;28;20024;-79
2021/05/01 00:10:23;;;;;;;33.85;16.95;;;6.20;99.90;;;;;;5060539;28;20025;-79
2021/05/01 00:12:51;;;;;;;28.88;15.27;;;6.10;99.90;;;;;;5042974;28;20028;-79
2021/05/01 00:15:19;;;;;;;29.23;16.20;;;6.10;99.90;;;;;;5060335;28;20334;-79
2021/05/01 00:17:47;;;;;;;32.00;16.60;;;5.90;99.90;;;;;;5060477;28;20024;-79
2021/05/01 00:20:14;;;;;;;31.23;16.98;;;5.80;99.90;;;;;;5060605;28;20033;-79
2021/05/01 00:22:42;;;;;;;30.05;16.95;;;5.70;99.90;;;;;;5042713;28;20024;-79
2021/05/01 00:25:10;;;;;;;34.00;18.20;;;5.60;99.90;;;;;;5041744;28;20428;-79
2021/05/01 00:27:37;;;;;;;31.67;17.55;;;5.50;99.90;;;;;;5059562;28;20321;-79
2021/05/01 00:30:06;;;;;;;38.90;19.77;;;5.40;99.90;;;;;;5059245;28;20079;-79
2021/05/01 00:32:34;;;;;;;36.38;18.75;;;5.30;99.90;;;;;;5059659;28;20352;-79
2021/05/01 00:35:03;;;;;;;43.95;21.83;;;5.30;99.90;;;;;;5041486;28;20029;-79
2021/05/01 00:37:31;;;;;;;36.55;18.70;;;5.20;99.90;;;;;;5059399;28;20029;-79
2021/05/01 00:39:58;;;;;;;34.55;17.65;;;5.10;99.90;;;;;;5059347;28;20029;-79
2021/05/01 00:42:26;;;;;;;32.60;16.90;;;5.10;99.90;;;;;;5059210;28;20051;-79
2021/05/01 00:44:53;;;;;;;28.23;15.50;;;5.00;99.90;;;;;;5041325;28;20029;-79
2021/05/01 00:47:22;;;;;;;30.83;16.35;;;4.90;99.90;;;;;;5059963;28;20405;-79
2021/05/01 00:49:49;;;;;;;31.48;14.68;;;4.80;99.90;;;;;;5060115;28;20089;-79
2021/05/01 00:52:17;;;;;;;29.85;17.20;;;4.60;99.90;;;;;;5060000;28;20025;-79
2021/05/01 00:54:45;;;;;;;28.48;15.52;;;4.50;99.90;;;;;;5060057;28;20017;-79
2021/05/01 00:57:13;;;;;;;34.47;17.23;;;4.40;99.90;;;;;;5059701;28;20020;-79
2021/05/01 00:59:41;;;;;;;32.92;16.38;;;4.20;99.90;;;;;;5059683;28;20025;-79
2021/05/01 01:02:09;;;;;;;34.22;18.25;;;4.20;99.90;;;;;;5042291;28;20320;-79
2021/05/01 01:04:37;;;;;;;34.63;17.08;;;4.10;99.90;;;;;;5059905;28;20405;-79
2021/05/01 01:07:05;;;;;;;35.75;17.73;;;4.10;99.90;;;;;;5058501;28;20029;-79
2021/05/01 01:09:33;;;;;;;33.53;17.83;;;3.90;99.90;;;;;;5059108;28;20478;-79
2021/05/01 01:12:01;;;;;;;38.10;18.27;;;3.90;99.90;;;;;;5058946;28;20032;-79
2021/05/01 01:14:28;;;;;;;34.25;16.75;;;3.90;99.90;;;;;;5057978;28;20021;-79
2021/05/01 01:16:56;;;;;;;33.15;16.73;;;3.80;99.90;;;;;;5058432;28;20033;-79
2021/05/01 01:19:23;;;;;;;34.08;16.55;;;3.70;99.90;;;;;;5058585;28;20025;-79
2021/05/01 01:21:51;;;;;;;37.65;18.67;;;3.70;99.90;;;;;;5040636;28;20021;-79
2021/05/01 01:24:19;;;;;;;32.53;17.10;;;3.70;99.90;;;;;;5040472;28;20408;-79
2021/05/01 01:26:48;;;;;;;33.63;16.95;;;3.60;99.90;;;;;;5058117;28;20021;-79
2021/05/01 01:29:15;;;;;;;34.22;17.65;;;3.60;99.90;;;;;;5040056;28;20440;-79
2021/05/01 01:31:43;;;;;;;37.13;17.55;;;3.50;99.90;;;;;;5059454;28;20021;-79
2021/05/01 01:34:11;;;;;;;38.45;17.33;;;3.50;99.90;;;;;;5058977;28;20381;-79
2021/05/01 01:36:38;;;;;;;37.03;17.30;;;3.40;99.90;;;;;;5041133;28;20056;-79
2021/05/01 01:39:07;;;;;;;31.60;16.35;;;3.40;99.90;;;;;;5058876;28;20126;-79
2021/05/01 01:41:35;;;;;;;31.52;16.67;;;3.30;99.90;;;;;;5059133;28;20365;-79
2021/05/01 01:44:03;;;;;;;35.85;16.55;;;3.30;99.90;;;;;;5059087;28;20017;-79
2021/05/01 01:46:33;;;;;;;29.63;16.75;;;3.20;99.90;;;;;;5040897;28;20324;-79
2021/05/01 01:49:01;;;;;;;32.97;16.77;;;3.20;99.90;;;;;;5058050;28;20043;-79
2021/05/01 01:51:29;;;;;;;31.10;15.15;;;3.20;99.90;;;;;;5057896;28;20021;-79
2021/05/01 01:53:57;;;;;;;35.22;16.17;;;3.10;99.90;;;;;;5058224;28;20021;-79
2021/05/01 01:56:27;;;;;;;38.80;16.85;;;3.10;99.90;;;;;;5057656;28;20024;-79
2021/05/01 01:58:55;;;;;;;33.95;16.80;;;3.10;99.90;;;;;;5039987;28;20021;-79
2021/05/01 02:01:22;;;;;;;28.70;14.95;;;3.00;99.90;;;;;;5057817;28;20013;-79
2021/05/01 02:03:50;;;;;;;29.67;15.52;;;3.00;99.90;;;;;;5057989;28;20021;-79
2021/05/01 02:06:17;;;;;;;31.98;14.60;;;3.00;99.90;;;;;;5057638;28;20078;-79
2021/05/01 02:08:44;;;;;;;34.35;16.17;;;2.90;99.90;;;;;;5039826;28;20117;-79
2021/05/01 02:11:12;;;;;;;32.40;17.58;;;2.90;99.90;;;;;;5058307;28;20321;-79
2021/05/01 02:13:39;;;;;;;39.05;16.40;;;2.80;99.90;;;;;;5040638;28;20029;-79
2021/05/01 02:16:07;;;;;;;32.13;16.55;;;2.80;99.90;;;;;;5058038;28;20444;-79
2021/05/01 02:18:34;;;;;;;32.05;16.08;;;2.70;99.90;;;;;;5040497;28;20056;-79
2021/05/01 02:21:03;;;;;;;28.00;14.90;;;2.70;99.90;;;;;;5057933;28;20098;-79
2021/05/01 02:23:31;;;;;;;27.15;13.98;;;2.70;99.90;;;;;;5058701;28;20025;-79
2021/05/01 02:25:58;;;;;;;23.45;12.43;;;2.60;99.90;;;;;;5057441;28;20071;-79
2021/05/01 02:28:26;;;;;;;29.77;14.27;;;2.60;99.90;;;;;;5039936;28;20040;-79
2021/05/01 02:30:55;;;;;;;37.38;15.82;;;2.50;99.90;;;;;;5057041;28;20417;-79
2021/05/01 02:33:22;;;;;;;32.17;15.10;;;2.40;99.90;;;;;;5057127;28;20017;-79
2021/05/01 02:35:50;;;;;;;30.20;14.82;;;2.40;99.90;;;;;;5056883;28;20027;-79
2021/05/01 02:38:17;;;;;;;35.05;17.23;;;2.30;99.90;;;;;;5056965;28;20071;-79
2021/05/01 02:40:45;;;;;;;86.18;18.73;;;2.30;99.90;;;;;;5039193;28;20047;-79
2021/05/01 02:43:13;;;;;;;91.95;20.58;;;2.30;99.90;;;;;;5057009;28;20452;-79
2021/05/01 02:45:41;;;;;;;37.33;16.98;;;2.30;99.90;;;;;;5057106;28;20025;-79
2021/05/01 02:48:09;;;;;;;40.75;16.83;;;2.30;99.90;;;;;;5056961;28;20017;-79
2021/05/01 02:50:37;;;;;;;42.33;18.15;;;2.30;99.90;;;;;;5057211;28;20021;-79
2021/05/01 02:53:05;;;;;;;81.43;19.30;;;2.20;99.90;;;;;;5039853;28;20444;-79
2021/05/01 02:55:33;;;;;;;45.00;16.58;;;2.20;99.90;;;;;;5057599;28;20021;-79
2021/05/01 02:58:01;;;;;;;84.57;18.60;;;2.20;99.90;;;;;;5057972;28;20044;-78
2021/05/01 03:00:29;;;;;;;137.05;18.63;;;2.20;99.90;;;;;;5057530;28;20036;-79
2021/05/01 03:02:58;;;;;;;121.90;18.70;;;2.20;99.90;;;;;;5057500;28;20017;-79
2021/05/01 03:05:25;;;;;;;57.50;17.85;;;2.10;99.90;;;;;;5039772;28;20025;-78
2021/05/01 03:07:53;;;;;;;47.25;16.60;;;2.10;99.90;;;;;;5057290;28;20439;-78
2021/05/01 03:10:23;;;;;;;31.85;15.68;;;2.10;99.90;;;;;;5056391;28;20067;-79
2021/05/01 03:12:52;;;;;;;33.75;15.82;;;2.00;99.90;;;;;;5056427;28;20014;-79
2021/05/01 03:15:21;;;;;;;55.88;18.83;;;2.00;99.90;;;;;;5056091;28;20043;-79
2021/05/01 03:17:48;;;;;;;97.75;19.00;;;2.00;99.90;;;;;;5056514;28;20482;-79
2021/05/01 03:20:16;;;;;;;105.50;22.60;;;2.00;99.90;;;;;;5056307;28;20036;-79
2021/05/01 03:22:47;;;;;;;90.05;18.98;;;2.00;99.90;;;;;;5056552;28;20025;-79
2021/05/01 03:25:18;;;;;;;85.18;19.05;;;2.00;99.90;;;;;;5056408;28;20333;-79
2021/05/01 03:27:46;;;;;;;57.90;18.55;;;2.00;99.90;;;;;;5038611;28;20340;-79
2021/05/01 03:30:18;;;;;;;44.08;19.17;;;2.00;99.90;;;;;;5056838;28;20017;-79
2021/05/01 03:32:45;;;;;;;51.85;19.08;;;2.00;99.90;;;;;;5039482;28;20021;-79
2021/05/01 03:35:15;;;;;;;53.42;19.67;;;2.10;99.90;;;;;;5057095;28;20024;-79
2021/05/01 03:37:43;;;;;;;58.55;18.40;;;2.00;99.90;;;;;;5060330;28;20032;-79
2021/05/01 03:40:12;;;;;;;53.05;18.27;;;2.00;99.90;;;;;;5061191;28;20100;-79
2021/05/01 03:42:40;;;;;;;44.00;18.38;;;2.00;99.90;;;;;;5061231;28;20171;-79
2021/05/01 03:45:10;;;;;;;53.22;19.88;;;2.00;99.90;;;;;;5043337;28;20421;-79
2021/05/01 03:47:37;;;;;;;45.70;17.80;;;2.10;99.90;;;;;;5061121;28;20324;-79
2021/05/01 03:50:07;;;;;;;47.85;19.80;;;2.10;99.90;;;;;;5060660;28;20023;-78
2021/05/01 03:52:36;;;;;;;43.53;18.05;;;2.20;99.90;;;;;;5060063;28;20086;-79
2021/05/01 03:55:05;;;;;;;40.30;19.13;;;2.20;99.90;;;;;;5060272;28;20439;-79
2021/05/01 03:57:33;;;;;;;41.72;18.05;;;2.30;99.90;;;;;;5042279;28;20025;-78
2021/05/01 04:00:01;;;;;;;43.65;18.52;;;2.30;99.90;;;;;;5042173;28;20115;-78
2021/05/01 04:02:28;;;;;;;41.33;16.52;;;2.40;99.90;;;;;;5060124;28;20095;-78
2021/05/01 04:04:56;;;;;;;69.97;20.98;;;2.40;99.90;;;;;;5060114;28;20049;-78
2021/05/01 04:07:25;;;;;;;49.33;17.20;;;2.40;99.90;;;;;;5059554;28;20021;-78
2021/05/01 04:09:52;;;;;;;44.13;18.15;;;2.50;99.90;;;;;;5059706;28;20033;-78
2021/05/01 04:12:20;;;;;;;47.17;18.65;;;2.50;99.90;;;;;;5061013;28;20017;-78
2021/05/01 04:14:47;;;;;;;55.55;19.55;;;2.60;99.90;;;;;;5042595;28;20033;-79
2021/05/01 04:17:15;;;;;;;59.40;19.38;;;2.60;99.90;;;;;;5060785;28;20453;-79
2021/05/01 04:19:43;;;;;;;54.88;19.73;;;2.70;99.90;;;;;;5042731;28;20036;-79
2021/05/01 04:22:10;;;;;;;53.20;22.55;;;2.80;99.90;;;;;;5042602;28;20424;-79
2021/05/01 04:24:38;;;;;;;59.08;22.00;;;2.90;99.90;;;;;;5042757;28;20037;-79
2021/05/01 04:27:06;;;;;;;54.90;23.10;;;3.00;99.90;;;;;;5060539;28;20032;-79
2021/05/01 04:29:33;;;;;;;51.63;22.90;;;3.10;99.90;;;;;;5060338;28;20021;-79
2021/05/01 04:32:01;;;;;;;54.50;22.55;;;3.20;99.90;;;;;;5059634;28;20352;-79
2021/05/01 04:34:28;;;;;;;51.67;22.83;;;3.30;99.90;;;;;;5059703;28;20022;-79
2021/05/01 04:36:56;;;;;;;56.97;24.25;;;3.40;99.90;;;;;;5059120;28;20029;-79
2021/05/01 04:39:24;;;;;;;47.38;21.77;;;3.50;99.90;;;;;;5059205;28;20318;-79
2021/05/01 04:41:52;;;;;;;53.22;21.02;;;3.60;99.90;;;;;;5059422;28;20111;-79
2021/05/01 04:44:21;;;;;;;42.80;19.83;;;3.70;99.90;;;;;;5041463;28;20060;-79
2021/05/01 04:46:53;;;;;;;45.08;21.02;;;3.70;99.90;;;;;;5041105;28;20033;-79
2021/05/01 04:49:21;;;;;;;44.95;21.42;;;3.80;99.90;;;;;;5040687;28;20071;-79
2021/05/01 04:51:48;;;;;;;40.70;19.83;;;3.90;99.90;;;;;;5059483;28;20040;-79
2021/05/01 04:54:16;;;;;;;39.53;19.85;;;3.90;99.90;;;;;;5060209;28;20025;-79
2021/05/01 04:56:44;;;;;;;39.25;20.17;;;4.00;99.90;;;;;;5042071;28;20107;-79
2021/05/01 04:59:11;;;;;;;42.20;20.52;;;4.00;99.90;;;;;;5059726;28;20025;-79
2021/05/01 05:01:39;;;;;;;38.08;18.95;;;4.10;99.90;;;;;;5059605;28;20025;-79
2021/05/01 05:04:07;;;;;;;34.63;18.52;;;4.10;99.90;;;;;;5060054;28;20084;-79
2021/05/01 05:06:35;;;;;;;40.38;20.10;;;4.20;99.90;;;;;;5059509;28;20409;-77
2021/05/01 05:09:03;;;;;;;41.70;19.08;;;4.10;99.90;;;;;;5059364;28;20111;-77
2021/05/01 05:11:30;;;;;;;36.55;18.73;;;4.10;99.90;;;;;;5058994;28;20017;-77
2021/05/01 05:13:59;;;;;;;39.72;20.85;;;4.10;99.90;;;;;;5058683;28;20025;-77
2021/05/01 05:16:27;;;;;;;40.83;19.92;;;4.20;99.90;;;;;;5058075;28;20048;-77
2021/05/01 05:18:56;;;;;;;40.03;19.77;;;4.30;99.90;;;;;;5058729;28;20104;-78
2021/05/01 05:21:26;;;;;;;42.45;21.15;;;4.30;99.90;;;;;;5040880;28;20329;-75
2021/05/01 05:23:54;;;;;;;42.20;20.20;;;4.40;99.90;;;;;;5040599;28;20032;-73
2021/05/01 05:26:23;;;;;;;33.72;19.08;;;4.50;99.90;;;;;;5058472;28;20321;-73
2021/05/01 05:28:51;;;;;;;40.05;21.15;;;4.60;99.90;;;;;;5058782;28;20116;-74
2021/05/01 05:31:19;;;;;;;42.08;20.15;;;4.70;99.90;;;;;;5040424;28;20028;-73
2021/05/01 05:33:47;;;;;;;39.97;20.15;;;4.80;99.90;;;;;;5058992;28;20021;-74
2021/05/01 05:36:15;;;;;;;49.13;20.02;;;4.90;99.90;;;;;;5058988;28;20064;-73
2021/05/01 05:38:43;;;;;;;73.00;21.23;;;5.10;99.90;;;;;;5059248;28;20428;-74
2021/05/01 05:41:11;;;;;;;44.25;19.48;;;5.20;99.90;;;;;;5041227;28;20029;-73
2021/05/01 05:43:38;;;;;;;33.63;18.15;;;5.30;99.90;;;;;;5059104;28;20440;-76
2021/05/01 05:46:17;;;;;;;38.58;18.75;;;5.50;99.90;;;;;;5058833;28;20425;-74
2021/05/01 05:48:45;;;;;;;32.50;18.88;;;5.60;99.90;;;;;;5058807;28;20104;-74
2021/05/01 05:51:13;;;;;;;34.25;18.52;;;5.70;99.90;;;;;;5058402;28;20100;-75
2021/05/01 05:53:40;;;;;;;34.00;19.50;;;5.80;99.90;;;;;;5057772;28;20028;-73
2021/05/01 05:56:08;;;;;;;28.60;17.05;;;5.90;99.90;;;;;;5058234;28;20023;-73
2021/05/01 05:58:36;;;;;;;27.88;17.10;;;6.00;99.90;;;;;;5058020;28;20418;-73
2021/05/01 06:01:04;;;;;;;32.22;19.33;;;6.10;99.90;;;;;;5056619;28;20020;-73
2021/05/01 06:03:32;;;;;;;30.25;18.65;;;6.10;99.90;;;;;;5057484;28;20376;-73
2021/05/01 06:06:12;;;;;;;35.10;19.30;;;6.20;99.90;;;;;;5057338;28;20071;-73
2021/05/01 06:08:40;;;;;;;32.85;18.73;;;6.30;99.90;;;;;;5057351;28;20033;-73
2021/05/01 06:11:12;;;;;;;35.50;19.48;;;6.30;99.90;;;;;;5039685;28;20025;-73
2021/05/01 06:13:40;;;;;;;34.72;20.23;;;6.40;99.90;;;;;;5058344;28;20070;-73
2021/05/01 06:16:08;;;;;;;34.53;19.35;;;6.50;99.90;;;;;;5058009;28;20037;-73
2021/05/01 06:18:38;;;;;;;33.08;19.55;;;6.60;99.90;;;;;;5058526;28;20031;-75
2021/05/01 06:21:10;;;;;;;33.08;20.23;;;6.70;99.90;;;;;;5058056;28;20100;-76
2021/05/01 06:23:42;;;;;;;35.72;19.85;;;6.80;99.90;;;;;;5058549;28;20103;-74
2021/05/01 06:26:10;;;;;;;37.55;20.17;;;6.90;99.90;;;;;;5057979;28;20078;-74
2021/05/01 06:28:37;;;;;;;35.15;19.38;;;7.00;99.90;;;;;;5058013;28;20029;-74
2021/05/01 06:31:07;;;;;;;35.67;20.48;;;7.10;99.90;;;;;;5058231;28;20017;-74
2021/05/01 06:33:40;;;;;;;32.85;19.17;;;7.20;99.90;;;;;;5039673;28;20094;-74
2021/05/01 06:36:12;;;;;;;35.08;19.58;;;7.30;99.90;;;;;;5056742;28;20435;-74
2021/05/01 06:38:40;;;;;;;36.72;20.08;;;7.40;99.90;;;;;;5057209;28;20036;-74
2021/05/01 06:41:10;;;;;;;33.33;19.55;;;7.60;99.90;;;;;;5057077;28;20029;-75
2021/05/01 06:44:19;;;;;;;33.13;19.40;;;7.70;99.90;;;;;;5056828;28;20477;-76
2021/05/01 06:46:49;;;;;;;31.77;18.13;;;7.90;99.90;;;;;;5000944;28;20436;-75
2021/05/01 06:49:41;;;;;;;35.13;20.75;;;8.00;99.90;;;;;;5057201;28;20067;-75
2021/05/01 06:52:10;;;;;;;32.38;19.48;;;8.20;99.90;;;;;;5056615;28;20021;-76
2021/05/01 06:54:38;;;;;;;33.45;20.50;;;8.40;99.90;;;;;;5057218;28;20356;-76
2021/05/01 06:57:07;;;;;;;35.05;18.48;;;8.50;99.90;;;;;;5057444;28;20033;-75
2021/05/01 06:59:36;;;;;;;30.55;19.25;;;8.60;99.90;;;;;;5057880;28;20032;-74
2021/05/01 07:02:03;;;;;;;33.92;19.30;;;8.80;99.90;;;;;;5057494;28;20321;-75
2021/05/01 07:04:32;;;;;;;31.48;17.92;;;9.00;99.90;;;;;;5057768;28;20021;-74
2021/05/01 07:07:00;;;;;;;31.73;19.67;;;9.10;99.90;;;;;;5057368;28;20025;-76
2021/05/01 07:09:30;;;;;;;29.83;17.92;;;9.30;99.90;;;;;;5057444;28;20066;-75
2021/05/01 07:11:59;;;;;;;33.08;18.77;;;9.50;99.90;;;;;;5057013;28;20048;-76
2021/05/01 07:14:28;;;;;;;33.08;19.23;;;9.60;99.90;;;;;;5056664;28;20132;-74
2021/05/01 07:16:55;;;;;;;32.38;17.52;;;9.60;99.90;;;;;;5055988;28;20118;-76
2021/05/01 07:19:25;;;;;;;31.77;17.10;;;9.60;99.90;;;;;;5038843;28;20116;-76
2021/05/01 07:21:54;;;;;;;36.10;18.65;;;9.70;99.90;;;;;;5056283;28;20028;-77
2021/05/01 07:24:21;;;;;;;39.33;19.92;;;9.70;99.90;;;;;;5056875;28;20029;-77
2021/05/01 07:26:49;;;;;;;38.60;20.55;;;9.80;99.90;;;;;;5056273;28;20032;-77
2021/05/01 07:29:18;;;;;;;39.53;21.67;;;9.90;99.90;;;;;;5056409;28;20321;-77
2021/05/01 07:31:45;;;;;;;39.78;21.05;;;10.00;99.90;;;;;;5056553;28;20105;-77
2021/05/01 07:34:22;;;;;;;39.20;21.55;;;10.10;99.90;;;;;;5056308;28;20032;-77
2021/05/01 07:36:52;;;;;;;;;;;10.20;99.90;;;;;;5057365;28;20105;-77
2021/05/01 07:39:20;;;;;;;42.40;20.30;;;10.30;99.90;;;;;;5057236;28;20016;-77
2021/05/01 07:41:56;;;;;;;39.97;21.30;;;10.30;99.90;;;;;;5057186;28;20030;-77
2021/05/01 07:44:33;;;;;;;34.50;19.58;;;10.40;99.90;;;;;;5057299;28;20033;-77
2021/05/01 07:47:02;;;;;;;40.28;21.67;;;10.60;99.90;;;;;;5057182;28;20116;-78
2021/05/01 07:49:31;;;;;;;39.88;21.67;;;10.70;99.90;;;;;;5039300;28;20051;-78
2021/05/01 07:52:02;;;;;;;43.40;22.20;;;10.80;99.90;;;;;;5039205;28;20032;-76
2021/05/01 07:54:32;;;;;;;47.25;24.92;;;11.00;99.90;;;;;;5056778;28;20025;-77
2021/05/01 07:57:01;;;;;;;40.55;23.13;;;11.20;99.90;;;;;;5056694;28;20017;-77
2021/05/01 07:59:28;;;;;;;37.17;21.90;;;11.30;99.90;;;;;;5056689;28;20053;-82
2021/05/01 08:01:56;;;;;;;42.50;22.58;;;11.30;99.90;;;;;;5056229;28;20021;-78
2021/05/01 08:04:24;;;;;;;43.35;24.27;;;11.30;99.90;;;;;;5056341;28;20025;-78
2021/05/01 08:06:52;;;;;;;43.45;24.65;;;11.30;99.90;;;;;;5056102;28;20025;-77
2021/05/01 08:09:20;;;;;;;42.03;23.00;;;11.30;99.90;;;;;;5056383;28;20021;-76
2021/05/01 08:11:48;;;;;;;43.40;23.67;;;11.20;99.90;;;;;;5055865;28;20445;-76
2021/05/01 08:14:16;;;;;;;40.50;23.83;;;11.10;99.90;;;;;;5056499;28;20032;-76
2021/05/01 08:16:43;;;;;;;44.85;24.48;;;11.10;99.90;;;;;;5056524;28;20041;-75
2021/05/01 08:19:11;;;;;;;45.95;26.35;;;11.00;99.90;;;;;;5057096;28;20021;-75
2021/05/01 08:21:39;;;;;;;45.53;25.63;;;11.00;99.90;;;;;;5038980;28;20025;-75
2021/05/01 08:24:08;;;;;;;45.80;24.67;;;11.00;99.90;;;;;;5040915;28;20025;-76
2021/05/01 08:26:37;;;;;;;42.85;25.40;;;11.00;99.90;;;;;;5060310;28;20444;-74
2021/05/01 08:29:04;;;;;;;49.97;25.00;;;10.90;99.90;;;;;;5060879;28;20046;-76
2021/05/01 08:31:32;;;;;;;45.22;24.83;;;10.90;99.90;;;;;;5042547;28;20028;-76
2021/05/01 08:34:00;;;;;;;43.95;23.95;;;10.90;99.90;;;;;;5060087;28;20020;-75
2021/05/01 08:36:28;;;;;;;41.65;24.08;;;10.80;99.90;;;;;;5059221;28;20025;-76
2021/05/01 08:38:56;;;;;;;48.10;23.38;;;10.80;99.90;;;;;;5059823;28;20021;-75
2021/05/01 08:41:23;;;;;;;45.47;25.10;;;10.60;99.90;;;;;;5059407;28;20021;-75
2021/05/01 08:43:52;;;;;;;40.78;24.38;;;10.50;99.90;;;;;;5059288;28;20032;-75
2021/05/01 08:46:23;;;;;;;44.33;24.90;;;10.50;99.90;;;;;;5059302;28;20025;-75
2021/05/01 08:48:52;;;;;;;42.55;23.15;;;10.40;99.90;;;;;;5059542;28;20025;-75
2021/05/01 08:51:20;;;;;;;39.15;23.83;;;10.30;99.90;;;;;;5058860;28;20029;-75
2021/05/01 08:53:48;;;;;;;46.60;25.63;;;10.30;99.90;;;;;;5059403;28;20021;-75
2021/05/01 08:56:15;;;;;;;41.90;23.65;;;10.30;99.90;;;;;;5059159;28;20076;-75
2021/05/01 08:58:43;;;;;;;48.47;27.00;;;10.30;99.90;;;;;;5059743;28;20424;-75
2021/05/01 09:01:13;;;;;;;49.95;26.50;;;10.30;99.90;;;;;;5059916;28;20033;-76
2021/05/01 09:03:42;;;;;;;52.08;27.73;;;10.20;99.90;;;;;;5059652;28;20029;-75
2021/05/01 09:06:11;;;;;;;47.92;26.05;;;10.20;99.90;;;;;;5041755;28;20040;-75
2021/05/01 09:08:42;;;;;;;54.22;28.42;;;10.20;99.90;;;;;;5059558;28;20440;-74
2021/05/01 09:11:10;;;;;;;58.92;31.40;;;10.20;99.90;;;;;;5041736;28;20029;-74
2021/05/01 09:13:50;;;;;;;59.47;31.05;;;10.30;99.90;;;;;;5059096;28;20108;-74
2021/05/01 09:16:18;;;;;;;59.83;31.67;;;10.30;99.90;;;;;;5037332;28;20044;-75
2021/05/01 09:18:56;;;;;;;62.58;31.40;;;10.50;99.90;;;;;;5054081;28;20428;-76
2021/05/01 09:21:29;;;;;;;60.40;31.17;;;10.60;99.90;;;;;;5038874;28;20029;-75
2021/05/01 09:23:57;;;;;;;66.38;32.47;;;10.70;99.90;;;;;;5038398;28;20032;-75
2021/05/01 09:26:40;;;;;;;56.28;30.90;;;10.80;99.90;;;;;;5038481;28;20051;-74
2021/05/01 09:29:09;;;;;;;55.53;29.80;;;10.80;99.90;;;;;;5038600;28;20432;-74
2021/05/01 09:31:51;;;;;;;56.00;31.30;;;10.90;99.90;;;;;;5054243;28;20163;-75
2021/05/01 09:34:19;;;;;;;54.45;30.25;;;10.90;99.90;;;;;;5038583;28;20425;-75
2021/05/01 09:36:46;;;;;;;63.15;30.30;;;11.00;99.90;;;;;;5039167;28;20413;-75
2021/05/01 09:39:16;;;;;;;55.85;30.33;;;11.10;99.90;;;;;;5039251;28;20487;-74
2021/05/01 09:41:48;;;;;;;52.38;29.38;;;11.20;99.90;;;;;;5039184;28;20020;-74
2021/05/01 09:44:18;;;;;;;46.90;27.73;;;11.30;99.90;;;;;;5038892;28;20025;-75
2021/05/01 09:46:50;;;;;;;46.80;25.98;;;11.40;99.90;;;;;;5038968;28;20017;-75
2021/05/01 09:49:31;;;;;;;47.00;26.40;;;11.50;99.90;;;;;;5038911;28;20025;-75
2021/05/01 09:52:00;;;;;;;42.20;25.25;;;11.50;99.90;;;;;;5038834;28;20414;-75
2021/05/01 09:54:29;;;;;;;49.03;26.25;;;11.40;99.90;;;;;;5037889;28;20417;-75
2021/05/01 09:57:01;;;;;;;45.33;25.08;;;11.50;99.90;;;;;;5037922;28;20414;-74
2021/05/01 09:59:52;;;;;;;42.88;24.73;;;11.60;99.90;;;;;;5038359;28;20100;-74
2021/05/01 10:02:22;;;;;;;42.88;24.85;;;11.80;99.90;;;;;;5037717;28;20022;-75
2021/05/01 10:05:11;;;;;;;43.40;25.90;;;12.00;99.90;;;;;;5037742;28;20022;-75
2021/05/01 10:07:47;;;;;;;46.60;25.55;;;12.20;99.90;;;;;;5053005;28;20449;-75
2021/05/01 10:10:14;;;;;;;44.65;26.27;;;12.30;99.90;;;;;;5037755;28;20021;-75
2021/05/01 10:12:43;;;;;;;42.50;25.25;;;12.40;99.90;;;;;;5037800;28;20021;-75
2021/05/01 10:15:19;;;;;;;45.53;25.75;;;12.50;99.90;;;;;;5053517;28;20045;-76
2021/05/01 10:17:50;;;;;;;43.20;25.50;;;12.60;99.50;;;;;;5038548;28;20021;-75
2021/05/01 10:20:19;;;;;;;38.60;24.08;;;12.70;99.90;;;;;;5039824;28;20049;-75
2021/05/01 10:22:47;;;;;;;43.00;24.92;;;12.80;99.50;;;;;;5054236;28;20060;-75
2021/05/01 10:25:19;;;;;;;44.47;26.33;;;13.00;99.60;;;;;;5040307;28;20120;-74
2021/05/01 10:27:55;;;;;;;39.88;24.15;;;13.10;99.90;;;;;;5053613;28;20112;-75
2021/05/01 10:30:46;;;;;;;42.35;25.10;;;13.20;99.20;;;;;;5038446;28;20041;-75
2021/05/01 10:35:58;;;;;;;44.05;25.58;;;13.20;97.20;;;;;;5037231;28;20112;-75
2021/05/01 10:38:27;;;;;;;40.30;25.38;;;13.20;97.30;;;;;;5037115;28;20025;-74
2021/05/01 10:40:58;;;;;;;41.63;25.10;;;13.20;96.70;;;;;;5037122;28;20053;-73
2021/05/01 10:43:28;;;;;;;42.03;25.48;;;13.30;96.80;;;;;;5037063;28;20048;-73
2021/05/01 10:46:05;;;;;;;43.42;26.13;;;13.30;96.60;;;;;;5052244;28;20103;-74
2021/05/01 10:48:46;;;;;;;40.13;25.67;;;13.40;97.30;;;;;;5036924;28;20071;-74
2021/05/01 10:51:15;;;;;;;43.28;27.80;;;13.60;95.70;;;;;;5037314;28;20080;-73
2021/05/01 10:53:44;;;;;;;43.55;25.80;;;13.80;95.70;;;;;;5037699;28;20100;-75
2021/05/01 10:56:12;;;;;;;42.92;26.10;;;13.90;95.20;;;;;;5038094;28;20033;-74
2021/05/01 10:58:49;;;;;;;41.03;26.63;;;14.00;95.30;;;;;;5037676;28;20433;-75
2021/05/01 11:01:28;;;;;;;40.75;27.05;;;14.00;94.10;;;;;;5037923;28;20031;-75
2021/05/01 11:04:02;;;;;;;36.65;23.45;;;13.90;94.30;;;;;;5037606;28;20063;-75
2021/05/01 11:06:37;;;;;;;39.08;24.75;;;13.90;94.30;;;;;;5037695;28;20035;-75
2021/05/01 11:09:09;;;;;;;42.03;24.48;;;13.70;94.20;;;;;;5037473;28;20105;-75
2021/05/01 11:11:39;;;;;;;34.78;21.58;;;13.70;94.10;;;;;;5037744;28;20045;-75
2021/05/01 11:14:26;;;;;;;33.38;21.65;;;13.60;94.30;;;;;;5036479;28;20027;-74
2021/05/01 11:17:17;;;;;;;32.33;19.60;;;13.60;93.90;;;;;;5054350;28;20120;-76
2021/05/01 11:19:46;;;;;;;28.25;18.60;;;13.60;93.90;;;;;;5056444;28;20021;-76
2021/05/01 11:22:22;;;;;;;30.35;19.48;;;13.60;93.20;;;;;;5056387;28;20025;-76
2021/05/01 11:24:50;;;;;;;32.10;20.25;;;13.50;93.70;;;;;;5056972;28;20017;-76
2021/05/01 11:27:20;;;;;;;31.35;19.08;;;13.60;93.20;;;;;;5056434;28;20037;-75
2021/05/01 11:29:47;;;;;;;30.77;19.92;;;13.60;93.00;;;;;;5056885;28;20087;-76
2021/05/01 11:32:16;;;;;;;30.60;17.67;;;13.60;92.30;;;;;;5056646;28;20032;-75
2021/05/01 11:34:57;;;;;;;30.80;18.92;;;13.60;91.90;;;;;;5056956;28;20013;-76
2021/05/01 11:37:28;;;;;;;31.75;18.17;;;13.60;92.10;;;;;;5057388;28;20471;-75
2021/05/01 11:39:59;;;;;;;30.08;18.98;;;13.60;91.60;;;;;;5057262;28;20482;-75
2021/05/01 11:42:30;;;;;;;29.48;18.58;;;13.50;91.70;;;;;;5057170;28;20444;-75
2021/05/01 11:44:58;;;;;;;27.98;17.70;;;13.60;92.10;;;;;;5057151;28;20120;-75
2021/05/01 11:47:30;;;;;;;24.65;17.55;;;13.70;91.40;;;;;;5057347;28;20032;-76
2021/05/01 11:49:58;;;;;;;29.10;17.92;;;13.80;90.20;;;;;;5039161;28;20071;-75
2021/05/01 11:52:41;;;;;;;29.48;18.65;;;13.90;91.20;;;;;;5056666;28;20055;-76
2021/05/01 11:55:23;;;;;;;30.27;18.10;;;14.10;91.30;;;;;;5056358;28;20465;-76
2021/05/01 11:57:55;;;;;;;28.08;16.98;;;14.20;90.10;;;;;;5056343;28;20465;-76
2021/05/01 12:00:35;;;;;;;30.13;18.50;;;14.40;87.20;;;;;;5059983;28;20421;-75
2021/05/01 12:03:21;;;;;;;33.38;18.38;;;14.50;88.40;;;;;;5060227;28;20050;-75
2021/05/01 12:06:04;;;;;;;28.92;17.38;;;14.70;85.90;;;;;;5059850;28;20082;-76
2021/05/01 12:08:32;;;;;;;30.20;18.45;;;14.80;83.80;;;;;;5041997;28;20472;-75
2021/05/01 12:11:04;;;;;;;31.75;18.70;;;15.00;83.10;;;;;;5059851;28;20029;-75
2021/05/01 12:13:35;;;;;;;27.30;18.17;;;15.10;79.60;;;;;;5060409;28;20025;-75
2021/05/01 12:16:05;;;;;;;30.85;17.90;;;15.10;81.80;;;;;;5060823;28;20041;-74
2021/05/01 12:18:43;;;;;;;28.23;18.45;;;15.20;81.20;;;;;;5060587;28;20032;-75
2021/05/01 12:21:23;;;;;;;28.65;19.08;;;15.30;81.30;;;;;;5042757;28;20029;-75
2021/05/01 12:23:55;;;;;;;28.23;18.95;;;15.40;77.90;;;;;;5060508;28;20025;-75
2021/05/01 12:29:41;;;;;;;30.67;19.38;;;15.30;77.40;;;;;;5060249;28;20087;-76
2021/05/01 12:32:10;;;;;;;31.88;19.88;;;15.10;77.40;;;;;;5061780;28;20060;-76
2021/05/01 12:34:57;;;;;;;29.48;20.23;;;15.00;78.40;;;;;;5059679;28;20029;-75
2021/05/01 12:37:27;;;;;;;29.67;19.85;;;14.90;78.70;;;;;;5059721;28;20080;-75
2021/05/01 12:40:04;;;;;;;29.92;18.33;;;14.80;77.10;;;;;;5059513;28;20017;-74
2021/05/01 12:42:33;;;;;;;32.92;20.42;;;14.60;78.20;;;;;;5041666;28;20021;-74
2021/05/01 12:45:36;;;;;;;29.88;18.23;;;14.60;80.40;;;;;;5059208;28;20025;-75
2021/05/01 12:48:04;;;;;;;30.77;18.95;;;14.70;76.50;;;;;;5059070;28;20029;-75
2021/05/01 12:50:32;;;;;;;31.67;18.75;;;14.80;74.40;;;;;;5059319;28;20017;-75
2021/05/01 12:53:28;;;;;;;29.65;19.88;;;14.90;74.20;;;;;;5058786;28;20036;-75